sensor_id;sensor_type;location;lat;lon;timestamp;temperature;humidity
52415;DHT22;38340;52.964;6.086;2022-10-13T00:01:59;9.60;99.90
52415;DHT22;38340;52.964;6.086;2022-10-13T00:04:26;9.70;99.90
52415;DHT22;38340;52.964;6.086;2022-10-13T00:06:51;9.70;99.90
52415;DHT22;38340;52.964;6.086;2022-10-13T00:09:17;9.60;99.90
52415;DHT22;38340;52.964;6.086;2022-10-13T00:11:43;9.70;99.90
52415;DHT22;38340;52.964;6.086;2022-10-13T00:14:08;9.60;99.90
52415;DHT22;38340;52.964;6.086;2022-10-13T00:16:34;9.70;99.90
52415;DHT22;38340;52.964;6.086;2022-10-13T00:19:00;9.50;99.90
52415;DHT22;38340;52.964;6.086;2022-10-13T00:21:27;9.60;99.90
52415;DHT22;38340;52.964;6.086;2022-10-13T00:23:53;9.60;99.90
52415;DHT22;38340;52.964;6.086;2022-10-13T00:26:21;9.60;99.90
52415;DHT22;38340;52.964;6.086;2022-10-13T00:28:47;9.50;99.90
52415;DHT22;38340;52.964;6.086;2022-10-13T00:31:22;9.60;99.90
52415;DHT22;38340;52.964;6.086;2022-10-13T00:33:48;9.50;99.90
52415;DHT22;38340;52.964;6.086;2022-10-13T00:36:14;9.50;99.90
52415;DHT22;38340;52.964;6.086;2022-10-13T00:38:40;9.50;99.90
52415;DHT22;38340;52.964;6.086;2022-10-13T00:41:06;9.50;99.90
52415;DHT22;38340;52.964;6.086;2022-10-13T00:43:57;9.50;99.90
52415;DHT22;38340;52.964;6.086;2022-10-13T00:46:27;9.50;99.90
52415;DHT22;38340;52.964;6.086;2022-10-13T00:48:54;9.60;99.90
52415;DHT22;38340;52.964;6.086;2022-10-13T00:51:25;9.60;99.90
52415;DHT22;38340;52.964;6.086;2022-10-13T00:53:52;9.50;99.90
52415;DHT22;38340;52.964;6.086;2022-10-13T00:56:20;9.60;99.90
52415;DHT22;38340;52.964;6.086;2022-10-13T00:58:48;9.50;99.90
52415;DHT22;38340;52.964;6.086;2022-10-13T01:01:14;9.50;99.90
52415;DHT22;38340;52.964;6.086;2022-10-13T01:03:40;9.50;99.90
52415;DHT22;38340;52.964;6.086;2022-10-13T01:06:06;9.60;99.90
52415;DHT22;38340;52.964;6.086;2022-10-13T01:08:32;9.50;99.90
52415;DHT22;38340;52.964;6.086;2022-10-13T01:11:19;9.60;99.90
52415;DHT22;38340;52.964;6.086;2022-10-13T01:14:14;9.60;99.90
52415;DHT22;38340;52.964;6.086;2022-10-13T01:16:54;9.50;99.90
52415;DHT22;38340;52.964;6.086;2022-10-13T01:19:43;9.60;99.90
52415;DHT22;38340;52.964;6.086;2022-10-13T01:28:05;9.60;99.90
52415;DHT22;38340;52.964;6.086;2022-10-13T01:30:38;9.60;99.90
52415;DHT22;38340;52.964;6.086;2022-10-13T01:33:34;9.60;99.90
52415;DHT22;38340;52.964;6.086;2022-10-13T01:36:29;9.60;99.90
52415;DHT22;38340;52.964;6.086;2022-10-13T01:39:09;9.60;99.90
52415;DHT22;38340;52.964;6.086;2022-10-13T01:41:41;9.60;99.90
52415;DHT22;38340;52.964;6.086;2022-10-13T01:44:11;9.70;99.90
52415;DHT22;38340;52.964;6.086;2022-10-13T01:46:41;9.70;99.90
52415;DHT22;38340;52.964;6.086;2022-10-13T01:49:13;9.60;99.90
52415;DHT22;38340;52.964;6.086;2022-10-13T01:51:42;9.70;99.90
52415;DHT22;38340;52.964;6.086;2022-10-13T01:54:09;9.70;99.90
52415;DHT22;38340;52.964;6.086;2022-10-13T01:56:35;9.60;99.90
52415;DHT22;38340;52.964;6.086;2022-10-13T01:59:06;9.60;99.90
52415;DHT22;38340;52.964;6.086;2022-10-13T02:06:38;9.60;99.90
52415;DHT22;38340;52.964;6.086;2022-10-13T02:09:12;9.70;99.90
52415;DHT22;38340;52.964;6.086;2022-10-13T02:11:46;9.60;99.90
52415;DHT22;38340;52.964;6.086;2022-10-13T02:14:23;9.60;99.90
52415;DHT22;38340;52.964;6.086;2022-10-13T02:16:51;9.60;99.90
52415;DHT22;38340;52.964;6.086;2022-10-13T02:19:18;9.70;99.90
52415;DHT22;38340;52.964;6.086;2022-10-13T02:21:45;9.60;99.90
52415;DHT22;38340;52.964;6.086;2022-10-13T02:24:11;9.70;99.90
52415;DHT22;38340;52.964;6.086;2022-10-13T02:26:38;9.60;99.90
52415;DHT22;38340;52.964;6.086;2022-10-13T02:29:14;9.70;99.90
52415;DHT22;38340;52.964;6.086;2022-10-13T02:31:41;9.70;99.90
52415;DHT22;38340;52.964;6.086;2022-10-13T02:34:07;9.70;99.90
52415;DHT22;38340;52.964;6.086;2022-10-13T02:36:33;9.70;99.90
52415;DHT22;38340;52.964;6.086;2022-10-13T02:38:59;9.70;99.90
52415;DHT22;38340;52.964;6.086;2022-10-13T02:41:25;9.70;99.90
52415;DHT22;38340;52.964;6.086;2022-10-13T02:43:51;9.70;99.90
52415;DHT22;38340;52.964;6.086;2022-10-13T02:46:16;9.60;99.90
52415;DHT22;38340;52.964;6.086;2022-10-13T02:48:42;9.70;99.90
52415;DHT22;38340;52.964;6.086;2022-10-13T02:51:08;9.70;99.90
52415;DHT22;38340;52.964;6.086;2022-10-13T02:53:34;9.70;99.90
52415;DHT22;38340;52.964;6.086;2022-10-13T02:55:59;9.80;99.90
52415;DHT22;38340;52.964;6.086;2022-10-13T02:58:25;9.70;99.90
52415;DHT22;38340;52.964;6.086;2022-10-13T03:00:51;9.70;99.90
52415;DHT22;38340;52.964;6.086;2022-10-13T03:03:16;9.80;99.90
52415;DHT22;38340;52.964;6.086;2022-10-13T03:05:43;9.80;99.90
52415;DHT22;38340;52.964;6.086;2022-10-13T03:08:09;9.80;99.90
52415;DHT22;38340;52.964;6.086;2022-10-13T03:10:34;9.80;99.90
52415;DHT22;38340;52.964;6.086;2022-10-13T03:13:00;9.80;99.90
52415;DHT22;38340;52.964;6.086;2022-10-13T03:15:26;9.80;99.90
52415;DHT22;38340;52.964;6.086;2022-10-13T03:17:52;9.70;99.90
52415;DHT22;38340;52.964;6.086;2022-10-13T03:20:17;9.80;99.90
52415;DHT22;38340;52.964;6.086;2022-10-13T03:22:43;9.70;99.90
52415;DHT22;38340;52.964;6.086;2022-10-13T03:25:09;9.70;99.90
52415;DHT22;38340;52.964;6.086;2022-10-13T03:27:34;9.70;99.90
52415;DHT22;38340;52.964;6.086;2022-10-13T03:30:00;9.70;99.90
52415;DHT22;38340;52.964;6.086;2022-10-13T03:32:29;9.70;99.90
52415;DHT22;38340;52.964;6.086;2022-10-13T03:34:54;9.70;99.90
52415;DHT22;38340;52.964;6.086;2022-10-13T03:37:20;9.80;99.90
52415;DHT22;38340;52.964;6.086;2022-10-13T03:39:46;9.70;99.90
52415;DHT22;38340;52.964;6.086;2022-10-13T03:42:11;9.80;99.90
52415;DHT22;38340;52.964;6.086;2022-10-13T03:44:37;9.80;99.90
52415;DHT22;38340;52.964;6.086;2022-10-13T03:47:03;9.80;99.90
52415;DHT22;38340;52.964;6.086;2022-10-13T03:49:29;9.80;99.90
52415;DHT22;38340;52.964;6.086;2022-10-13T03:51:55;9.80;99.90
52415;DHT22;38340;52.964;6.086;2022-10-13T03:54:20;9.80;99.90
52415;DHT22;38340;52.964;6.086;2022-10-13T03:56:47;9.80;99.90
52415;DHT22;38340;52.964;6.086;2022-10-13T03:59:13;9.80;99.90
52415;DHT22;38340;52.964;6.086;2022-10-13T04:01:41;9.80;99.90
52415;DHT22;38340;52.964;6.086;2022-10-13T04:04:09;9.80;99.90
52415;DHT22;38340;52.964;6.086;2022-10-13T04:06:35;9.80;99.90
52415;DHT22;38340;52.964;6.086;2022-10-13T04:09:01;9.80;99.90
52415;DHT22;38340;52.964;6.086;2022-10-13T04:11:28;9.80;99.90
52415;DHT22;38340;52.964;6.086;2022-10-13T04:13:55;9.90;99.90
52415;DHT22;38340;52.964;6.086;2022-10-13T04:16:22;9.90;99.90
52415;DHT22;38340;52.964;6.086;2022-10-13T04:18:55;10.00;99.90
52415;DHT22;38340;52.964;6.086;2022-10-13T04:21:22;9.90;99.90
52415;DHT22;38340;52.964;6.086;2022-10-13T04:23:48;10.00;99.90
52415;DHT22;38340;52.964;6.086;2022-10-13T04:26:19;9.90;99.90
52415;DHT22;38340;52.964;6.086;2022-10-13T04:28:46;9.90;99.90
52415;DHT22;38340;52.964;6.086;2022-10-13T04:31:13;9.90;99.90
52415;DHT22;38340;52.964;6.086;2022-10-13T04:33:39;9.90;99.90
52415;DHT22;38340;52.964;6.086;2022-10-13T04:36:06;9.90;99.90
52415;DHT22;38340;52.964;6.086;2022-10-13T04:38:32;9.90;99.90
52415;DHT22;38340;52.964;6.086;2022-10-13T04:40:58;9.90;99.90
52415;DHT22;38340;52.964;6.086;2022-10-13T04:43:23;10.00;99.90
52415;DHT22;38340;52.964;6.086;2022-10-13T04:45:49;10.00;99.90
52415;DHT22;38340;52.964;6.086;2022-10-13T04:48:14;10.00;99.90
52415;DHT22;38340;52.964;6.086;2022-10-13T04:50:40;10.10;99.90
52415;DHT22;38340;52.964;6.086;2022-10-13T04:53:06;10.00;99.90
52415;DHT22;38340;52.964;6.086;2022-10-13T04:55:35;10.10;99.90
52415;DHT22;38340;52.964;6.086;2022-10-13T04:58:00;10.00;99.90
52415;DHT22;38340;52.964;6.086;2022-10-13T05:00:26;10.00;99.90
52415;DHT22;38340;52.964;6.086;2022-10-13T05:02:51;10.00;99.90
52415;DHT22;38340;52.964;6.086;2022-10-13T05:05:17;10.00;99.90
52415;DHT22;38340;52.964;6.086;2022-10-13T05:07:43;10.00;99.90
52415;DHT22;38340;52.964;6.086;2022-10-13T05:10:09;10.00;99.90
52415;DHT22;38340;52.964;6.086;2022-10-13T05:12:34;10.00;99.90
52415;DHT22;38340;52.964;6.086;2022-10-13T05:15:00;10.10;99.90
52415;DHT22;38340;52.964;6.086;2022-10-13T05:17:28;10.20;99.90
52415;DHT22;38340;52.964;6.086;2022-10-13T05:19:55;10.10;99.90
52415;DHT22;38340;52.964;6.086;2022-10-13T05:22:21;10.20;99.90
52415;DHT22;38340;52.964;6.086;2022-10-13T05:24:46;10.10;99.90
52415;DHT22;38340;52.964;6.086;2022-10-13T05:27:12;10.20;99.90
52415;DHT22;38340;52.964;6.086;2022-10-13T05:29:39;10.10;99.90
52415;DHT22;38340;52.964;6.086;2022-10-13T05:32:05;10.20;99.90
52415;DHT22;38340;52.964;6.086;2022-10-13T05:34:31;10.20;99.90
52415;DHT22;38340;52.964;6.086;2022-10-13T05:36:58;10.30;99.90
52415;DHT22;38340;52.964;6.086;2022-10-13T05:39:24;10.20;99.90
52415;DHT22;38340;52.964;6.086;2022-10-13T05:41:49;10.40;99.90
52415;DHT22;38340;52.964;6.086;2022-10-13T05:44:15;10.20;99.90
52415;DHT22;38340;52.964;6.086;2022-10-13T05:46:42;10.30;99.90
52415;DHT22;38340;52.964;6.086;2022-10-13T05:49:08;10.30;99.90
52415;DHT22;38340;52.964;6.086;2022-10-13T05:51:39;10.40;99.90
52415;DHT22;38340;52.964;6.086;2022-10-13T05:54:13;10.40;99.90
52415;DHT22;38340;52.964;6.086;2022-10-13T05:56:53;10.30;99.90
52415;DHT22;38340;52.964;6.086;2022-10-13T05:59:20;10.40;99.90
52415;DHT22;38340;52.964;6.086;2022-10-13T06:01:47;10.40;99.90
52415;DHT22;38340;52.964;6.086;2022-10-13T06:04:19;10.40;99.90
52415;DHT22;38340;52.964;6.086;2022-10-13T06:06:47;10.50;99.90
52415;DHT22;38340;52.964;6.086;2022-10-13T06:09:13;10.50;99.90
52415;DHT22;38340;52.964;6.086;2022-10-13T06:11:39;10.50;99.90
52415;DHT22;38340;52.964;6.086;2022-10-13T06:14:05;10.50;99.90
52415;DHT22;38340;52.964;6.086;2022-10-13T06:16:30;10.50;99.90
52415;DHT22;38340;52.964;6.086;2022-10-13T06:18:56;10.60;99.90
52415;DHT22;38340;52.964;6.086;2022-10-13T06:21:22;10.60;99.90
52415;DHT22;38340;52.964;6.086;2022-10-13T06:23:47;10.60;99.90
52415;DHT22;38340;52.964;6.086;2022-10-13T06:26:13;10.70;99.90
52415;DHT22;38340;52.964;6.086;2022-10-13T06:28:39;10.60;99.90
52415;DHT22;38340;52.964;6.086;2022-10-13T06:31:05;10.60;99.90
52415;DHT22;38340;52.964;6.086;2022-10-13T06:33:31;10.70;99.90
52415;DHT22;38340;52.964;6.086;2022-10-13T06:36:03;10.70;99.90
52415;DHT22;38340;52.964;6.086;2022-10-13T06:38:29;10.80;99.90
52415;DHT22;38340;52.964;6.086;2022-10-13T06:40:59;10.80;99.90
52415;DHT22;38340;52.964;6.086;2022-10-13T06:43:24;10.80;99.90
52415;DHT22;38340;52.964;6.086;2022-10-13T06:45:50;10.80;99.90
52415;DHT22;38340;52.964;6.086;2022-10-13T06:48:16;10.90;99.90
52415;DHT22;38340;52.964;6.086;2022-10-13T06:50:41;10.80;99.90
52415;DHT22;38340;52.964;6.086;2022-10-13T06:53:07;11.00;99.90
52415;DHT22;38340;52.964;6.086;2022-10-13T06:55:33;11.00;99.90
52415;DHT22;38340;52.964;6.086;2022-10-13T06:57:58;11.00;99.90
52415;DHT22;38340;52.964;6.086;2022-10-13T07:00:24;11.00;99.90
52415;DHT22;38340;52.964;6.086;2022-10-13T07:02:50;11.10;99.90
52415;DHT22;38340;52.964;6.086;2022-10-13T07:05:16;11.10;99.90
52415;DHT22;38340;52.964;6.086;2022-10-13T07:07:42;11.10;99.90
52415;DHT22;38340;52.964;6.086;2022-10-13T07:10:08;11.20;99.90
52415;DHT22;38340;52.964;6.086;2022-10-13T07:12:34;11.20;99.90
52415;DHT22;38340;52.964;6.086;2022-10-13T07:14:59;11.30;99.90
52415;DHT22;38340;52.964;6.086;2022-10-13T07:17:25;11.30;99.90
52415;DHT22;38340;52.964;6.086;2022-10-13T07:19:51;11.30;99.90
52415;DHT22;38340;52.964;6.086;2022-10-13T07:22:17;11.40;99.90
52415;DHT22;38340;52.964;6.086;2022-10-13T07:24:42;11.40;99.90
52415;DHT22;38340;52.964;6.086;2022-10-13T07:27:08;11.30;99.90
52415;DHT22;38340;52.964;6.086;2022-10-13T07:29:33;11.40;99.90
52415;DHT22;38340;52.964;6.086;2022-10-13T07:32:00;11.50;99.90
52415;DHT22;38340;52.964;6.086;2022-10-13T07:34:25;11.60;99.90
52415;DHT22;38340;52.964;6.086;2022-10-13T07:36:51;11.60;99.90
52415;DHT22;38340;52.964;6.086;2022-10-13T07:39:16;11.60;99.90
52415;DHT22;38340;52.964;6.086;2022-10-13T07:41:42;11.70;99.90
52415;DHT22;38340;52.964;6.086;2022-10-13T07:44:08;11.70;99.90
52415;DHT22;38340;52.964;6.086;2022-10-13T07:46:33;11.70;99.90
52415;DHT22;38340;52.964;6.086;2022-10-13T07:48:59;11.80;99.90
52415;DHT22;38340;52.964;6.086;2022-10-13T07:51:25;11.90;99.90
52415;DHT22;38340;52.964;6.086;2022-10-13T07:53:50;11.80;99.90
52415;DHT22;38340;52.964;6.086;2022-10-13T07:56:17;11.90;99.90
52415;DHT22;38340;52.964;6.086;2022-10-13T07:58:45;11.80;99.90
52415;DHT22;38340;52.964;6.086;2022-10-13T08:01:12;11.90;99.90
52415;DHT22;38340;52.964;6.086;2022-10-13T08:03:39;12.10;99.90
52415;DHT22;38340;52.964;6.086;2022-10-13T08:06:05;12.10;99.90
52415;DHT22;38340;52.964;6.086;2022-10-13T08:08:32;12.10;99.90
52415;DHT22;38340;52.964;6.086;2022-10-13T08:11:11;12.10;99.90
52415;DHT22;38340;52.964;6.086;2022-10-13T08:13:37;12.10;99.90
52415;DHT22;38340;52.964;6.086;2022-10-13T08:16:03;12.30;99.90
52415;DHT22;38340;52.964;6.086;2022-10-13T08:18:29;12.30;99.90
52415;DHT22;38340;52.964;6.086;2022-10-13T08:20:59;12.30;99.90
52415;DHT22;38340;52.964;6.086;2022-10-13T08:23:25;12.20;99.90
52415;DHT22;38340;52.964;6.086;2022-10-13T08:25:51;12.40;99.90
52415;DHT22;38340;52.964;6.086;2022-10-13T08:28:25;12.40;99.90
52415;DHT22;38340;52.964;6.086;2022-10-13T08:30:53;12.40;99.90
52415;DHT22;38340;52.964;6.086;2022-10-13T08:33:21;12.40;99.90
52415;DHT22;38340;52.964;6.086;2022-10-13T08:35:47;12.30;99.90
52415;DHT22;38340;52.964;6.086;2022-10-13T08:38:13;12.40;99.90
52415;DHT22;38340;52.964;6.086;2022-10-13T08:40:38;12.50;99.90
52415;DHT22;38340;52.964;6.086;2022-10-13T08:43:06;12.50;99.90
52415;DHT22;38340;52.964;6.086;2022-10-13T08:45:32;12.40;99.90
52415;DHT22;38340;52.964;6.086;2022-10-13T08:48:05;12.50;99.90
52415;DHT22;38340;52.964;6.086;2022-10-13T08:50:35;12.40;99.90
52415;DHT22;38340;52.964;6.086;2022-10-13T08:53:10;12.50;99.90
52415;DHT22;38340;52.964;6.086;2022-10-13T08:55:41;12.60;99.90
52415;DHT22;38340;52.964;6.086;2022-10-13T08:58:23;12.60;99.90
52415;DHT22;38340;52.964;6.086;2022-10-13T09:06:19;12.60;99.90
52415;DHT22;38340;52.964;6.086;2022-10-13T09:09:11;12.70;99.90
52415;DHT22;38340;52.964;6.086;2022-10-13T09:11:42;12.60;99.90
52415;DHT22;38340;52.964;6.086;2022-10-13T09:14:11;12.60;99.90
52415;DHT22;38340;52.964;6.086;2022-10-13T09:16:43;12.70;99.90
52415;DHT22;38340;52.964;6.086;2022-10-13T09:21:37;12.70;99.90
52415;DHT22;38340;52.964;6.086;2022-10-13T09:24:10;12.80;99.90
52415;DHT22;38340;52.964;6.086;2022-10-13T09:26:38;12.90;99.90
52415;DHT22;38340;52.964;6.086;2022-10-13T09:29:17;13.00;99.90
52415;DHT22;38340;52.964;6.086;2022-10-13T09:31:43;12.90;99.90
52415;DHT22;38340;52.964;6.086;2022-10-13T09:34:23;13.00;99.90
52415;DHT22;38340;52.964;6.086;2022-10-13T09:36:59;13.00;99.90
52415;DHT22;38340;52.964;6.086;2022-10-13T09:39:25;13.20;99.90
52415;DHT22;38340;52.964;6.086;2022-10-13T09:41:52;13.00;99.90
52415;DHT22;38340;52.964;6.086;2022-10-13T09:44:33;13.20;99.90
52415;DHT22;38340;52.964;6.086;2022-10-13T09:47:01;13.20;99.90
52415;DHT22;38340;52.964;6.086;2022-10-13T09:49:34;13.00;99.90
52415;DHT22;38340;52.964;6.086;2022-10-13T09:59:56;13.10;99.90
52415;DHT22;38340;52.964;6.086;2022-10-13T10:08:22;13.10;99.90
52415;DHT22;38340;52.964;6.086;2022-10-13T10:10:51;13.00;99.90
52415;DHT22;38340;52.964;6.086;2022-10-13T10:13:17;13.10;99.90
52415;DHT22;38340;52.964;6.086;2022-10-13T10:16:11;13.10;99.90
52415;DHT22;38340;52.964;6.086;2022-10-13T10:18:45;13.00;99.90
52415;DHT22;38340;52.964;6.086;2022-10-13T10:30:02;13.10;99.90
52415;DHT22;38340;52.964;6.086;2022-10-13T10:32:56;13.00;99.90
52415;DHT22;38340;52.964;6.086;2022-10-13T10:35:57;13.10;99.90
52415;DHT22;38340;52.964;6.086;2022-10-13T10:38:29;13.20;99.90
52415;DHT22;38340;52.964;6.086;2022-10-13T10:46:33;13.40;99.90
52415;DHT22;38340;52.964;6.086;2022-10-13T10:49:03;13.60;99.90
52415;DHT22;38340;52.964;6.086;2022-10-13T10:51:37;13.80;99.90
52415;DHT22;38340;52.964;6.086;2022-10-13T10:57:19;13.80;99.90
52415;DHT22;38340;52.964;6.086;2022-10-13T11:05:04;14.10;99.90
52415;DHT22;38340;52.964;6.086;2022-10-13T11:17:38;14.10;99.90
52415;DHT22;38340;52.964;6.086;2022-10-13T11:30:55;14.40;99.90
52415;DHT22;38340;52.964;6.086;2022-10-13T11:41:43;14.30;99.90
52415;DHT22;38340;52.964;6.086;2022-10-13T11:44:23;14.30;99.90
52415;DHT22;38340;52.964;6.086;2022-10-13T11:53:10;14.20;99.90
52415;DHT22;38340;52.964;6.086;2022-10-13T11:55:51;14.00;99.90
52415;DHT22;38340;52.964;6.086;2022-10-13T12:00:56;14.20;99.90
52415;DHT22;38340;52.964;6.086;2022-10-13T12:03:28;14.10;99.90
52415;DHT22;38340;52.964;6.086;2022-10-13T12:08:46;14.10;99.90
52415;DHT22;38340;52.964;6.086;2022-10-13T12:11:23;14.20;99.90
52415;DHT22;38340;52.964;6.086;2022-10-13T12:13:50;14.20;99.90
52415;DHT22;38340;52.964;6.086;2022-10-13T12:16:17;14.20;99.90
52415;DHT22;38340;52.964;6.086;2022-10-13T12:18:42;14.10;99.90
52415;DHT22;38340;52.964;6.086;2022-10-13T12:21:14;14.10;99.90
52415;DHT22;38340;52.964;6.086;2022-10-13T12:23:41;14.10;99.90
52415;DHT22;38340;52.964;6.086;2022-10-13T12:26:07;14.10;99.90
52415;DHT22;38340;52.964;6.086;2022-10-13T12:28:53;14.20;99.90
52415;DHT22;38340;52.964;6.086;2022-10-13T12:31:25;14.10;99.90
52415;DHT22;38340;52.964;6.086;2022-10-13T12:34:00;14.10;99.90
52415;DHT22;38340;52.964;6.086;2022-10-13T12:36:34;14.00;99.90
52415;DHT22;38340;52.964;6.086;2022-10-13T12:39:04;14.00;99.90
52415;DHT22;38340;52.964;6.086;2022-10-13T12:41:34;14.10;99.90
52415;DHT22;38340;52.964;6.086;2022-10-13T12:44:02;14.10;99.90
52415;DHT22;38340;52.964;6.086;2022-10-13T12:46:43;14.10;99.90
52415;DHT22;38340;52.964;6.086;2022-10-13T12:51:39;14.30;99.90
52415;DHT22;38340;52.964;6.086;2022-10-13T12:54:18;14.30;99.90
52415;DHT22;38340;52.964;6.086;2022-10-13T12:56:45;14.40;99.90
52415;DHT22;38340;52.964;6.086;2022-10-13T12:59:16;14.10;99.90
52415;DHT22;38340;52.964;6.086;2022-10-13T13:01:43;14.20;99.90
52415;DHT22;38340;52.964;6.086;2022-10-13T13:09:22;14.50;99.90
52415;DHT22;38340;52.964;6.086;2022-10-13T13:12:10;14.50;99.90
52415;DHT22;38340;52.964;6.086;2022-10-13T13:14:41;14.50;99.90
52415;DHT22;38340;52.964;6.086;2022-10-13T13:17:20;14.40;99.90
52415;DHT22;38340;52.964;6.086;2022-10-13T13:19:51;14.40;99.90
52415;DHT22;38340;52.964;6.086;2022-10-13T13:22:17;14.50;99.90
52415;DHT22;38340;52.964;6.086;2022-10-13T13:24:43;14.50;99.90
52415;DHT22;38340;52.964;6.086;2022-10-13T13:29:50;14.50;99.90
52415;DHT22;38340;52.964;6.086;2022-10-13T13:32:18;14.50;99.90
52415;DHT22;38340;52.964;6.086;2022-10-13T13:34:44;14.60;99.90
52415;DHT22;38340;52.964;6.086;2022-10-13T13:37:38;14.60;99.90
52415;DHT22;38340;52.964;6.086;2022-10-13T13:40:05;14.70;99.90
52415;DHT22;38340;52.964;6.086;2022-10-13T13:42:32;14.50;99.90
52415;DHT22;38340;52.964;6.086;2022-10-13T13:44:57;14.60;99.90
52415;DHT22;38340;52.964;6.086;2022-10-13T13:47:25;14.80;99.90
52415;DHT22;38340;52.964;6.086;2022-10-13T13:49:53;14.60;99.90
52415;DHT22;38340;52.964;6.086;2022-10-13T13:52:20;14.60;99.90
52415;DHT22;38340;52.964;6.086;2022-10-13T13:54:46;14.50;99.90
52415;DHT22;38340;52.964;6.086;2022-10-13T13:57:13;14.50;99.90
52415;DHT22;38340;52.964;6.086;2022-10-13T13:59:40;14.50;99.90
52415;DHT22;38340;52.964;6.086;2022-10-13T14:02:11;14.50;99.90
52415;DHT22;38340;52.964;6.086;2022-10-13T14:04:37;14.50;99.90
52415;DHT22;38340;52.964;6.086;2022-10-13T14:07:02;14.30;99.90
52415;DHT22;38340;52.964;6.086;2022-10-13T14:09:29;14.30;99.90
52415;DHT22;38340;52.964;6.086;2022-10-13T14:11:54;14.30;99.90
52415;DHT22;38340;52.964;6.086;2022-10-13T14:14:20;14.40;99.90
52415;DHT22;38340;52.964;6.086;2022-10-13T14:16:46;14.40;99.90
52415;DHT22;38340;52.964;6.086;2022-10-13T14:19:11;14.40;99.90
52415;DHT22;38340;52.964;6.086;2022-10-13T14:21:37;14.50;99.90
52415;DHT22;38340;52.964;6.086;2022-10-13T14:24:03;14.30;99.90
52415;DHT22;38340;52.964;6.086;2022-10-13T14:26:30;14.30;99.90
52415;DHT22;38340;52.964;6.086;2022-10-13T14:28:55;14.50;99.90
52415;DHT22;38340;52.964;6.086;2022-10-13T14:31:22;14.30;99.90
52415;DHT22;38340;52.964;6.086;2022-10-13T14:33:48;14.30;99.90
52415;DHT22;38340;52.964;6.086;2022-10-13T14:36:14;14.30;99.90
52415;DHT22;38340;52.964;6.086;2022-10-13T14:38:40;14.40;99.90
52415;DHT22;38340;52.964;6.086;2022-10-13T14:41:06;14.30;99.90
52415;DHT22;38340;52.964;6.086;2022-10-13T14:43:32;14.30;99.90
52415;DHT22;38340;52.964;6.086;2022-10-13T14:46:02;14.20;99.90
52415;DHT22;38340;52.964;6.086;2022-10-13T14:48:32;14.40;99.90
52415;DHT22;38340;52.964;6.086;2022-10-13T14:50:58;14.20;99.90
52415;DHT22;38340;52.964;6.086;2022-10-13T14:53:24;14.20;99.90
52415;DHT22;38340;52.964;6.086;2022-10-13T14:55:52;14.10;99.90
52415;DHT22;38340;52.964;6.086;2022-10-13T14:58:18;14.10;99.90
52415;DHT22;38340;52.964;6.086;2022-10-13T15:00:44;14.10;99.90
52415;DHT22;38340;52.964;6.086;2022-10-13T15:03:09;14.10;99.90
52415;DHT22;38340;52.964;6.086;2022-10-13T15:05:35;14.00;99.90
52415;DHT22;38340;52.964;6.086;2022-10-13T15:08:01;14.10;99.90
52415;DHT22;38340;52.964;6.086;2022-10-13T15:10:27;14.20;99.90
52415;DHT22;38340;52.964;6.086;2022-10-13T15:12:52;14.10;99.90
52415;DHT22;38340;52.964;6.086;2022-10-13T15:15:18;14.30;99.90
52415;DHT22;38340;52.964;6.086;2022-10-13T15:17:44;14.10;99.90
52415;DHT22;38340;52.964;6.086;2022-10-13T15:20:10;14.10;99.90
52415;DHT22;38340;52.964;6.086;2022-10-13T15:22:36;14.20;99.90
52415;DHT22;38340;52.964;6.086;2022-10-13T15:25:03;14.20;99.90
52415;DHT22;38340;52.964;6.086;2022-10-13T15:27:32;14.20;99.90
52415;DHT22;38340;52.964;6.086;2022-10-13T15:29:59;14.40;99.90
52415;DHT22;38340;52.964;6.086;2022-10-13T15:32:25;14.20;99.90
52415;DHT22;38340;52.964;6.086;2022-10-13T15:34:50;14.10;99.90
52415;DHT22;38340;52.964;6.086;2022-10-13T15:37:16;14.20;99.90
52415;DHT22;38340;52.964;6.086;2022-10-13T15:39:42;14.20;99.90
52415;DHT22;38340;52.964;6.086;2022-10-13T15:42:09;14.30;99.90
52415;DHT22;38340;52.964;6.086;2022-10-13T15:44:36;14.10;99.90
52415;DHT22;38340;52.964;6.086;2022-10-13T15:47:01;14.20;99.90
52415;DHT22;38340;52.964;6.086;2022-10-13T15:49:27;14.10;99.90
52415;DHT22;38340;52.964;6.086;2022-10-13T15:51:53;14.20;99.90
52415;DHT22;38340;52.964;6.086;2022-10-13T15:54:20;14.10;99.90
52415;DHT22;38340;52.964;6.086;2022-10-13T15:56:46;14.10;99.90
52415;DHT22;38340;52.964;6.086;2022-10-13T15:59:12;14.20;99.90
52415;DHT22;38340;52.964;6.086;2022-10-13T16:01:37;14.10;99.90
52415;DHT22;38340;52.964;6.086;2022-10-13T16:04:03;14.00;99.90
52415;DHT22;38340;52.964;6.086;2022-10-13T16:06:29;14.00;99.90
52415;DHT22;38340;52.964;6.086;2022-10-13T16:08:55;13.90;99.90
52415;DHT22;38340;52.964;6.086;2022-10-13T16:11:21;14.00;99.90
52415;DHT22;38340;52.964;6.086;2022-10-13T16:13:51;13.90;99.90
52415;DHT22;38340;52.964;6.086;2022-10-13T16:16:17;13.90;99.90
52415;DHT22;38340;52.964;6.086;2022-10-13T16:18:44;13.90;99.90
52415;DHT22;38340;52.964;6.086;2022-10-13T16:23:37;13.90;99.90
52415;DHT22;38340;52.964;6.086;2022-10-13T16:26:07;13.90;99.90
52415;DHT22;38340;52.964;6.086;2022-10-13T16:28:33;13.80;99.90
52415;DHT22;38340;52.964;6.086;2022-10-13T16:31:07;13.80;99.90
52415;DHT22;38340;52.964;6.086;2022-10-13T16:33:34;13.70;99.90
52415;DHT22;38340;52.964;6.086;2022-10-13T16:36:04;13.70;99.90
52415;DHT22;38340;52.964;6.086;2022-10-13T16:38:30;13.60;99.90
52415;DHT22;38340;52.964;6.086;2022-10-13T16:40:56;13.50;99.90
52415;DHT22;38340;52.964;6.086;2022-10-13T16:43:22;13.40;99.90
52415;DHT22;38340;52.964;6.086;2022-10-13T16:45:58;13.30;99.90
52415;DHT22;38340;52.964;6.086;2022-10-13T16:48:24;13.30;99.90
52415;DHT22;38340;52.964;6.086;2022-10-13T16:50:50;13.30;99.90
52415;DHT22;38340;52.964;6.086;2022-10-13T16:53:17;13.20;99.90
52415;DHT22;38340;52.964;6.086;2022-10-13T16:55:43;13.20;99.90
52415;DHT22;38340;52.964;6.086;2022-10-13T16:58:09;13.00;99.90
52415;DHT22;38340;52.964;6.086;2022-10-13T17:00:36;13.10;99.90
52415;DHT22;38340;52.964;6.086;2022-10-13T17:03:01;13.10;99.90
52415;DHT22;38340;52.964;6.086;2022-10-13T17:05:27;13.00;99.90
52415;DHT22;38340;52.964;6.086;2022-10-13T17:07:53;13.00;99.90
52415;DHT22;38340;52.964;6.086;2022-10-13T17:10:19;12.90;99.90
52415;DHT22;38340;52.964;6.086;2022-10-13T17:12:45;12.80;99.90
52415;DHT22;38340;52.964;6.086;2022-10-13T17:15:10;12.80;99.90
52415;DHT22;38340;52.964;6.086;2022-10-13T17:17:36;12.90;99.90
52415;DHT22;38340;52.964;6.086;2022-10-13T17:20:02;12.80;99.90
52415;DHT22;38340;52.964;6.086;2022-10-13T17:22:28;12.80;99.90
52415;DHT22;38340;52.964;6.086;2022-10-13T17:24:54;12.70;99.90
52415;DHT22;38340;52.964;6.086;2022-10-13T17:27:20;12.80;99.90
52415;DHT22;38340;52.964;6.086;2022-10-13T17:29:45;12.70;99.90
52415;DHT22;38340;52.964;6.086;2022-10-13T17:32:11;12.70;99.90